createdAt,value
2023-04-27T00:00:09.885Z,1013.68
2023-04-27T00:01:09.849Z,1013.61
2023-04-27T00:02:09.903Z,1013.63
2023-04-27T00:03:10.178Z,1013.63
2023-04-27T00:04:09.970Z,1013.65
2023-04-27T00:05:09.890Z,1013.64
2023-04-27T00:06:09.982Z,1013.67
2023-04-27T00:07:09.859Z,1013.66
2023-04-27T00:08:09.866Z,1013.69
2023-04-27T00:09:09.805Z,1013.66
2023-04-27T00:10:09.765Z,1013.66
2023-04-27T00:11:09.767Z,1013.66
2023-04-27T00:12:09.762Z,1013.70
2023-04-27T00:13:09.905Z,1013.74
2023-04-27T00:14:09.719Z,1013.69
2023-04-27T00:15:09.719Z,1013.71
2023-04-27T00:16:09.756Z,1013.72
2023-04-27T00:17:09.694Z,1013.73
2023-04-27T00:18:09.979Z,1013.76
2023-04-27T00:19:09.777Z,1013.75
2023-04-27T00:20:09.650Z,1013.77
2023-04-27T00:21:09.640Z,1013.75
2023-04-27T00:22:09.637Z,1013.72
2023-04-27T00:23:09.638Z,1013.74
2023-04-27T00:24:09.589Z,1013.76
2023-04-27T00:25:09.598Z,1013.75
2023-04-27T00:26:09.581Z,1013.75
2023-04-27T00:27:09.572Z,1013.74
2023-04-27T00:28:09.596Z,1013.74
2023-04-27T00:29:09.550Z,1013.76
2023-04-27T00:30:09.545Z,1013.73
2023-04-27T00:31:09.523Z,1013.75
2023-04-27T00:32:09.601Z,1013.74
2023-04-27T00:33:09.510Z,1013.76
2023-04-27T00:34:09.498Z,1013.77
2023-04-27T00:35:09.499Z,1013.78
2023-04-27T00:36:09.471Z,1013.78
2023-04-27T00:37:09.461Z,1013.79
2023-04-27T00:38:09.451Z,1013.80
2023-04-27T00:39:09.438Z,1013.84
2023-04-27T00:40:09.431Z,1013.83
2023-04-27T00:41:09.411Z,1013.78
2023-04-27T00:42:09.402Z,1013.74
2023-04-27T00:43:09.385Z,1013.77
2023-04-27T00:44:09.397Z,1013.75
2023-04-27T00:45:09.377Z,1013.76
2023-04-27T00:46:09.387Z,1013.73
2023-04-27T00:47:09.340Z,1013.72
2023-04-27T00:48:09.376Z,1013.74
2023-04-27T00:49:09.354Z,1013.73
2023-04-27T00:50:09.303Z,1013.73
2023-04-27T00:51:09.312Z,1013.77
2023-04-27T00:52:09.285Z,1013.78
2023-04-27T00:53:09.273Z,1013.76
2023-04-27T00:54:09.263Z,1013.79
2023-04-27T00:55:09.232Z,1013.79
2023-04-27T00:56:09.243Z,1013.78
2023-04-27T00:57:09.255Z,1013.77
2023-04-27T00:58:09.218Z,1013.80
2023-04-27T00:59:09.228Z,1013.77
2023-04-27T01:00:09.185Z,1013.74
2023-04-27T01:01:09.240Z,1013.68
2023-04-27T01:02:09.326Z,1013.68
2023-04-27T01:03:09.292Z,1013.67
2023-04-27T01:04:09.356Z,1013.70
2023-04-27T01:05:09.149Z,1013.71
2023-04-27T01:06:09.119Z,1013.74
2023-04-27T01:07:09.118Z,1013.71
2023-04-27T01:08:09.101Z,1013.75
2023-04-27T01:09:09.098Z,1013.71
2023-04-27T01:10:09.100Z,1013.73
2023-04-27T01:11:09.056Z,1013.72
2023-04-27T01:12:09.116Z,1013.77
2023-04-27T01:13:09.024Z,1013.75
2023-04-27T01:14:09.041Z,1013.77
2023-04-27T01:15:09.040Z,1013.77
2023-04-27T01:16:09.013Z,1013.79
2023-04-27T01:17:09.207Z,1013.78
2023-04-27T01:18:09.068Z,1013.78
2023-04-27T01:19:08.987Z,1013.77
2023-04-27T01:20:08.949Z,1013.81
2023-04-27T01:21:08.952Z,1013.79
2023-04-27T01:22:08.982Z,1013.81
2023-04-27T01:23:08.968Z,1013.76
2023-04-27T01:24:08.982Z,1013.76
2023-04-27T01:25:08.930Z,1013.81
2023-04-27T01:26:08.895Z,1013.77
2023-04-27T01:27:08.878Z,1013.81
2023-04-27T01:28:08.861Z,1013.83
2023-04-27T01:29:08.841Z,1013.82
2023-04-27T01:30:08.862Z,1013.85
2023-04-27T01:31:08.985Z,1013.84
2023-04-27T01:32:08.839Z,1013.84
2023-04-27T01:33:09.047Z,1013.85
2023-04-27T01:34:08.811Z,1013.79
2023-04-27T01:35:08.800Z,1013.81
2023-04-27T01:36:08.783Z,1013.78
2023-04-27T01:37:08.757Z,1013.78
2023-04-27T01:38:08.743Z,1013.76
2023-04-27T01:39:08.777Z,1013.72
2023-04-27T01:40:08.744Z,1013.73
2023-04-27T01:41:08.728Z,1013.75
2023-04-27T01:42:08.718Z,1013.71
2023-04-27T01:43:08.708Z,1013.72
2023-04-27T01:44:08.746Z,1013.69
2023-04-27T01:45:08.671Z,1013.71
2023-04-27T01:46:08.759Z,1013.73
2023-04-27T01:47:08.674Z,1013.75
2023-04-27T01:48:08.695Z,1013.76
2023-04-27T01:49:08.636Z,1013.74
2023-04-27T01:50:08.616Z,1013.79
2023-04-27T01:51:08.632Z,1013.82
2023-04-27T01:52:08.601Z,1013.79
2023-04-27T01:53:08.585Z,1013.81
2023-04-27T01:54:08.569Z,1013.82
2023-04-27T01:55:08.585Z,1013.84
2023-04-27T01:56:08.544Z,1013.81
2023-04-27T01:57:08.553Z,1013.83
2023-04-27T01:58:08.535Z,1013.80
2023-04-27T01:59:08.526Z,1013.80
2023-04-27T02:00:08.507Z,1013.82
2023-04-27T02:01:08.496Z,1013.79
2023-04-27T02:02:08.608Z,1013.81
2023-04-27T02:03:08.642Z,1013.78
2023-04-27T02:04:08.673Z,1013.81
2023-04-27T02:05:08.497Z,1013.81
2023-04-27T02:06:08.460Z,1013.85
2023-04-27T02:07:08.467Z,1013.86
2023-04-27T02:08:08.405Z,1013.84
2023-04-27T02:09:08.414Z,1013.86
2023-04-27T02:10:08.402Z,1013.84
2023-04-27T02:11:08.466Z,1013.84
2023-04-27T02:12:08.406Z,1013.84
2023-04-27T02:13:08.378Z,1013.84
2023-04-27T02:14:08.352Z,1013.84
2023-04-27T02:15:08.339Z,1013.85
2023-04-27T02:16:08.387Z,1013.85
2023-04-27T02:17:08.337Z,1013.83
2023-04-27T02:18:08.324Z,1013.85
2023-04-27T02:19:08.314Z,1013.87
2023-04-27T02:20:08.266Z,1013.89
2023-04-27T02:21:08.274Z,1013.87
2023-04-27T02:22:08.295Z,1013.87
2023-04-27T02:23:08.260Z,1013.89
2023-04-27T02:24:08.240Z,1013.88
2023-04-27T02:25:08.215Z,1013.84
2023-04-27T02:26:08.222Z,1013.82
2023-04-27T02:27:08.419Z,1013.82
2023-04-27T02:28:08.176Z,1013.85
2023-04-27T02:29:08.193Z,1013.80
2023-04-27T02:30:08.165Z,1013.84
2023-04-27T02:31:08.161Z,1013.83
2023-04-27T02:32:08.164Z,1013.81
2023-04-27T02:33:08.241Z,1013.81
2023-04-27T02:34:08.126Z,1013.82
2023-04-27T02:35:08.112Z,1013.83
2023-04-27T02:36:08.113Z,1013.86
2023-04-27T02:37:08.107Z,1013.86
2023-04-27T02:38:08.080Z,1013.86
2023-04-27T02:39:08.071Z,1013.87
2023-04-27T02:40:08.042Z,1013.88
2023-04-27T02:41:08.044Z,1013.89
2023-04-27T02:42:08.020Z,1013.88
2023-04-27T02:43:08.066Z,1013.90
2023-04-27T02:44:08.009Z,1013.87
2023-04-27T02:45:07.993Z,1013.86
2023-04-27T02:46:08.015Z,1013.91
2023-04-27T02:47:08.114Z,1013.92
2023-04-27T02:48:08.031Z,1013.87
2023-04-27T02:49:07.955Z,1013.86
2023-04-27T02:50:07.956Z,1013.83
2023-04-27T02:51:07.953Z,1013.83
2023-04-27T02:52:07.936Z,1013.81
2023-04-27T02:53:07.922Z,1013.77
2023-04-27T02:54:07.884Z,1013.71
2023-04-27T02:55:07.888Z,1013.70
2023-04-27T02:56:07.873Z,1013.70
2023-04-27T02:57:07.860Z,1013.65
2023-04-27T02:58:07.849Z,1013.66
2023-04-27T02:59:07.903Z,1013.66
2023-04-27T03:00:07.819Z,1013.65
2023-04-27T03:01:07.822Z,1013.66
2023-04-27T03:02:07.814Z,1013.70
2023-04-27T03:03:07.904Z,1013.70
2023-04-27T03:04:07.972Z,1013.71
2023-04-27T03:05:07.764Z,1013.72
2023-04-27T03:06:07.748Z,1013.68
2023-04-27T03:07:07.751Z,1013.71
2023-04-27T03:08:07.776Z,1013.69
2023-04-27T03:09:07.720Z,1013.69
2023-04-27T03:10:07.695Z,1013.65
2023-04-27T03:11:07.694Z,1013.67
2023-04-27T03:12:07.685Z,1013.63
2023-04-27T03:13:07.698Z,1013.65
2023-04-27T03:14:07.657Z,1013.66
2023-04-27T03:15:07.666Z,1013.68
2023-04-27T03:16:07.678Z,1013.67
2023-04-27T03:17:07.638Z,1013.66
2023-04-27T03:18:07.720Z,1013.66
2023-04-27T03:19:07.609Z,1013.66
2023-04-27T03:20:07.633Z,1013.65
2023-04-27T03:21:07.595Z,1013.64
2023-04-27T03:22:07.578Z,1013.66
2023-04-27T03:23:07.557Z,1013.69
2023-04-27T03:24:07.562Z,1013.75
2023-04-27T03:25:07.581Z,1013.74
2023-04-27T03:26:07.512Z,1013.73
2023-04-27T03:27:07.537Z,1013.76
2023-04-27T03:28:07.510Z,1013.76
2023-04-27T03:29:07.485Z,1013.77
2023-04-27T03:30:07.489Z,1013.72
2023-04-27T03:31:07.547Z,1013.74
2023-04-27T03:32:07.494Z,1013.74
2023-04-27T03:33:07.522Z,1013.73
2023-04-27T03:34:07.430Z,1013.73
2023-04-27T03:35:07.437Z,1013.74
2023-04-27T03:36:07.402Z,1013.70
2023-04-27T03:37:07.396Z,1013.69
2023-04-27T03:38:07.395Z,1013.72
2023-04-27T03:39:07.369Z,1013.72
2023-04-27T03:40:07.395Z,1013.71
2023-04-27T03:41:07.364Z,1013.73
2023-04-27T03:42:07.332Z,1013.71
2023-04-27T03:43:07.337Z,1013.74
2023-04-27T03:44:07.321Z,1013.74
2023-04-27T03:45:07.354Z,1013.74
2023-04-27T03:46:07.388Z,1013.78
2023-04-27T03:47:07.314Z,1013.72
2023-04-27T03:48:07.352Z,1013.72
2023-04-27T03:49:07.253Z,1013.72
2023-04-27T03:50:07.236Z,1013.74
2023-04-27T03:51:07.243Z,1013.73
2023-04-27T03:52:07.220Z,1013.74
2023-04-27T03:53:07.230Z,1013.78
2023-04-27T03:54:07.202Z,1013.77
2023-04-27T03:55:07.215Z,1013.79
2023-04-27T03:56:07.185Z,1013.80
2023-04-27T03:57:07.166Z,1013.78
2023-04-27T03:58:07.181Z,1013.76
2023-04-27T03:59:07.162Z,1013.82
2023-04-27T04:00:07.153Z,1013.85
2023-04-27T04:01:07.142Z,1013.85
2023-04-27T04:02:07.156Z,1013.88
2023-04-27T04:03:07.438Z,1013.86
2023-04-27T04:04:07.258Z,1013.85
2023-04-27T04:05:07.140Z,1013.87
2023-04-27T04:06:07.067Z,1013.87
2023-04-27T04:07:07.065Z,1013.87
2023-04-27T04:08:07.068Z,1013.87
2023-04-27T04:09:07.026Z,1013.85
2023-04-27T04:10:07.062Z,1013.91
2023-04-27T04:11:07.020Z,1013.92
2023-04-27T04:12:06.997Z,1013.94
2023-04-27T04:13:06.998Z,1013.93
2023-04-27T04:14:07.006Z,1013.94
2023-04-27T04:15:07.011Z,1013.94
2023-04-27T04:16:07.034Z,1013.98
2023-04-27T04:17:06.957Z,1014.00
2023-04-27T04:18:06.945Z,1014.02
2023-04-27T04:19:06.964Z,1014.02
2023-04-27T04:20:06.912Z,1014.05
2023-04-27T04:21:06.897Z,1014.05
2023-04-27T04:22:06.884Z,1014.04
2023-04-27T04:23:06.930Z,1014.04
2023-04-27T04:24:06.888Z,1014.04
2023-04-27T04:25:06.870Z,1014.06
2023-04-27T04:26:06.836Z,1014.03
2023-04-27T04:27:06.829Z,1014.03
2023-04-27T04:28:06.810Z,1014.06
2023-04-27T04:29:08.386Z,1014.08
2023-04-27T04:30:06.841Z,1014.11
2023-04-27T04:31:06.828Z,1014.12
2023-04-27T04:32:06.765Z,1014.09
2023-04-27T04:33:06.801Z,1014.11
2023-04-27T04:34:06.782Z,1014.09
2023-04-27T04:35:06.766Z,1014.08
2023-04-27T04:36:06.779Z,1014.08
2023-04-27T04:37:06.754Z,1014.07
2023-04-27T04:38:06.729Z,1014.10
2023-04-27T04:39:06.732Z,1014.08
2023-04-27T04:40:06.693Z,1014.09
2023-04-27T04:41:06.681Z,1014.10
2023-04-27T04:42:06.671Z,1014.12
2023-04-27T04:43:06.676Z,1014.13
2023-04-27T04:44:06.642Z,1014.13
2023-04-27T04:45:06.661Z,1014.19
2023-04-27T04:46:06.787Z,1014.15
2023-04-27T04:47:06.615Z,1014.21
2023-04-27T04:48:06.680Z,1014.17
2023-04-27T04:49:06.595Z,1014.21
2023-04-27T04:50:06.594Z,1014.21
2023-04-27T04:51:06.578Z,1014.19
2023-04-27T04:52:06.573Z,1014.17
2023-04-27T04:53:06.560Z,1014.19
2023-04-27T04:54:06.547Z,1014.18
2023-04-27T04:55:06.570Z,1014.15
2023-04-27T04:56:06.504Z,1014.21
2023-04-27T04:57:06.485Z,1014.18
2023-04-27T04:58:06.502Z,1014.17
2023-04-27T04:59:06.488Z,1014.19
2023-04-27T05:00:06.476Z,1014.18
2023-04-27T05:01:06.587Z,1014.17
2023-04-27T05:02:06.520Z,1014.19
2023-04-27T05:04:06.702Z,1014.22
2023-04-27T05:05:06.508Z,1014.26
2023-04-27T05:06:06.450Z,1014.26
2023-04-27T05:07:06.613Z,1014.27
2023-04-27T05:08:06.391Z,1014.29
2023-04-27T05:09:06.380Z,1014.31
2023-04-27T05:10:06.347Z,1014.29
2023-04-27T05:11:06.357Z,1014.31
2023-04-27T05:12:06.310Z,1014.35
2023-04-27T05:13:07.191Z,1014.34
2023-04-27T05:14:06.286Z,1014.37
2023-04-27T05:15:06.288Z,1014.39
2023-04-27T05:16:06.486Z,1014.40
2023-04-27T05:17:06.282Z,1014.42
2023-04-27T05:18:06.260Z,1014.42
2023-04-27T05:19:06.248Z,1014.42
2023-04-27T05:20:06.244Z,1014.39
2023-04-27T05:21:06.230Z,1014.39
2023-04-27T05:22:06.203Z,1014.38
2023-04-27T05:23:06.217Z,1014.30
2023-04-27T05:24:06.193Z,1014.33
2023-04-27T05:25:06.179Z,1014.34
2023-04-27T05:26:06.200Z,1014.34
2023-04-27T05:27:06.159Z,1014.30
2023-04-27T05:28:06.128Z,1014.30
2023-04-27T05:29:06.160Z,1014.31
2023-04-27T05:30:06.128Z,1014.36
2023-04-27T05:31:06.125Z,1014.33
2023-04-27T05:32:06.199Z,1014.37
2023-04-27T05:33:06.226Z,1014.43
2023-04-27T05:34:06.061Z,1014.46
2023-04-27T05:35:06.067Z,1014.44
2023-04-27T05:36:06.049Z,1014.45
2023-04-27T05:37:06.049Z,1014.48
2023-04-27T05:38:06.030Z,1014.45
2023-04-27T05:39:06.043Z,1014.45
2023-04-27T05:40:06.014Z,1014.43
2023-04-27T05:41:06.011Z,1014.45
2023-04-27T05:42:05.989Z,1014.51
2023-04-27T05:43:05.974Z,1014.48
2023-04-27T05:44:05.962Z,1014.52
2023-04-27T05:45:06.008Z,1014.55
2023-04-27T05:46:06.023Z,1014.57
2023-04-27T05:47:05.935Z,1014.57
2023-04-27T05:48:06.008Z,1014.55
2023-04-27T05:49:05.942Z,1014.58
2023-04-27T05:50:05.884Z,1014.57
2023-04-27T05:51:05.902Z,1014.59
2023-04-27T05:52:05.870Z,1014.62
2023-04-27T05:53:05.927Z,1014.62
2023-04-27T05:54:05.847Z,1014.59
2023-04-27T05:55:05.846Z,1014.58
2023-04-27T05:56:05.854Z,1014.63
2023-04-27T05:57:05.802Z,1014.63
2023-04-27T05:58:08.464Z,1014.66
2023-04-27T05:59:05.794Z,1014.67
2023-04-27T06:00:05.784Z,1014.64
2023-04-27T06:01:05.798Z,1014.63
2023-04-27T06:02:05.782Z,1014.66
2023-04-27T06:03:05.837Z,1014.66
2023-04-27T06:04:05.826Z,1014.66
2023-04-27T06:05:05.761Z,1014.69
2023-04-27T06:06:05.741Z,1014.66
2023-04-27T06:07:05.693Z,1014.70
2023-04-27T06:08:05.681Z,1014.63
2023-04-27T06:09:05.664Z,1014.64
2023-04-27T06:10:05.661Z,1014.65
2023-04-27T06:11:05.683Z,1014.65
2023-04-27T06:12:05.680Z,1014.65
2023-04-27T06:13:05.635Z,1014.63
2023-04-27T06:14:05.633Z,1014.66
2023-04-27T06:15:05.598Z,1014.65
2023-04-27T06:16:05.636Z,1014.68
2023-04-27T06:17:05.587Z,1014.71
2023-04-27T06:18:05.622Z,1014.72
2023-04-27T06:19:05.552Z,1014.73
2023-04-27T06:20:05.544Z,1014.74
2023-04-27T06:21:05.544Z,1014.75
2023-04-27T06:22:05.532Z,1014.74
2023-04-27T06:23:05.555Z,1014.74
2023-04-27T06:24:05.511Z,1014.71
2023-04-27T06:25:05.503Z,1014.71
2023-04-27T06:26:05.480Z,1014.72
2023-04-27T06:27:05.511Z,1014.74
2023-04-27T06:28:05.468Z,1014.73
2023-04-27T06:29:05.479Z,1014.73
2023-04-27T06:30:05.436Z,1014.73
2023-04-27T06:31:05.594Z,1014.73
2023-04-27T06:32:05.424Z,1014.75
2023-04-27T06:33:05.464Z,1014.74
2023-04-27T06:34:05.404Z,1014.76
2023-04-27T06:35:05.400Z,1014.75
2023-04-27T06:36:05.367Z,1014.73
2023-04-27T06:37:05.343Z,1014.77
2023-04-27T06:38:07.525Z,1014.76
2023-04-27T06:39:05.326Z,1014.76
2023-04-27T06:40:05.316Z,1014.75
2023-04-27T06:41:05.297Z,1014.74
2023-04-27T06:42:05.299Z,1014.77
2023-04-27T06:43:05.355Z,1014.74
2023-04-27T06:44:05.268Z,1014.77
2023-04-27T06:45:05.255Z,1014.73
2023-04-27T06:46:05.309Z,1014.75
2023-04-27T06:47:05.250Z,1014.74
2023-04-27T06:48:05.286Z,1014.75
2023-04-27T06:49:05.221Z,1014.81
2023-04-27T06:50:05.201Z,1014.78
2023-04-27T06:51:05.200Z,1014.82
2023-04-27T06:52:05.202Z,1014.75
2023-04-27T06:53:05.177Z,1014.76
2023-04-27T06:54:05.168Z,1014.81
2023-04-27T06:55:05.143Z,1014.76
2023-04-27T06:56:05.148Z,1014.75
2023-04-27T06:57:05.129Z,1014.75
2023-04-27T06:58:05.134Z,1014.70
2023-04-27T06:59:05.115Z,1014.70
2023-04-27T07:00:05.128Z,1014.72
2023-04-27T07:01:05.106Z,1014.66
2023-04-27T07:02:05.073Z,1014.67
2023-04-27T07:03:05.152Z,1014.67
2023-04-27T07:04:05.213Z,1014.63
2023-04-27T07:05:05.053Z,1014.61
2023-04-27T07:06:05.031Z,1014.61
2023-04-27T07:07:05.014Z,1014.60
2023-04-27T07:08:07.909Z,1014.58
2023-04-27T07:09:10.452Z,1014.57
2023-04-27T07:10:06.006Z,1014.60
2023-04-27T07:11:04.984Z,1014.60
2023-04-27T07:12:04.961Z,1014.58
2023-04-27T07:13:07.354Z,1014.64
2023-04-27T07:14:04.945Z,1014.63
2023-04-27T07:15:04.953Z,1014.60
2023-04-27T07:16:04.934Z,1014.63
2023-04-27T07:17:04.888Z,1014.69
2023-04-27T07:18:04.958Z,1014.65
2023-04-27T07:19:04.880Z,1014.64
2023-04-27T07:20:04.901Z,1014.64
2023-04-27T07:21:04.863Z,1014.63
2023-04-27T07:22:04.850Z,1014.66
2023-04-27T07:23:04.840Z,1014.73
2023-04-27T07:24:04.830Z,1014.70
2023-04-27T07:25:04.812Z,1014.68
2023-04-27T07:26:04.841Z,1014.65
2023-04-27T07:27:04.778Z,1014.67
2023-04-27T07:28:04.788Z,1014.66
2023-04-27T07:29:14.456Z,1014.63
2023-04-27T07:30:05.805Z,1014.64
2023-04-27T07:31:04.761Z,1014.65
2023-04-27T07:32:04.747Z,1014.60
2023-04-27T07:33:04.805Z,1014.63
2023-04-27T07:34:04.717Z,1014.60
2023-04-27T07:35:04.705Z,1014.59
2023-04-27T07:36:04.678Z,1014.59
2023-04-27T07:37:04.664Z,1014.64
2023-04-27T07:38:04.655Z,1014.63
2023-04-27T07:39:04.637Z,1014.65
2023-04-27T07:40:04.648Z,1014.61
2023-04-27T07:41:04.643Z,1014.60
2023-04-27T07:42:04.605Z,1014.57
2023-04-27T07:43:04.590Z,1014.59
2023-04-27T07:44:04.601Z,1014.61
2023-04-27T07:45:04.587Z,1014.61
2023-04-27T07:46:04.651Z,1014.53
2023-04-27T07:47:04.583Z,1014.49
2023-04-27T07:48:04.611Z,1014.52
2023-04-27T07:49:04.541Z,1014.50
2023-04-27T07:50:04.567Z,1014.50
2023-04-27T07:51:04.508Z,1014.45
2023-04-27T07:52:04.496Z,1014.40
2023-04-27T07:53:04.484Z,1014.44
2023-04-27T07:54:04.487Z,1014.45
2023-04-27T07:55:04.475Z,1014.48
2023-04-27T07:56:04.447Z,1014.46
2023-04-27T07:57:04.431Z,1014.48
2023-04-27T07:58:04.438Z,1014.48
2023-04-27T07:59:04.415Z,1014.48
2023-04-27T08:00:04.458Z,1014.51
2023-04-27T08:01:04.451Z,1014.53
2023-04-27T08:02:18.361Z,1014.49
2023-04-27T08:03:05.863Z,1014.48
2023-04-27T08:04:04.749Z,1014.47
2023-04-27T08:05:04.731Z,1014.48
2023-04-27T08:06:04.831Z,1014.50
2023-04-27T08:07:05.174Z,1014.53
2023-04-27T08:08:04.633Z,1014.55
2023-04-27T08:09:04.321Z,1014.54
2023-04-27T08:10:04.336Z,1014.51
2023-04-27T08:11:04.280Z,1014.50
2023-04-27T08:12:04.284Z,1014.46
2023-04-27T08:13:04.283Z,1014.47
2023-04-27T08:14:04.270Z,1014.46
2023-04-27T08:15:04.227Z,1014.43
2023-04-27T08:16:04.245Z,1014.41
2023-04-27T08:17:04.281Z,1014.42
2023-04-27T08:18:04.241Z,1014.34
2023-04-27T08:19:04.260Z,1014.35
2023-04-27T08:20:04.188Z,1014.36
2023-04-27T08:21:04.177Z,1014.41
2023-04-27T08:22:04.205Z,1014.31
2023-04-27T08:23:04.149Z,1014.38
2023-04-27T08:24:04.148Z,1014.34
2023-04-27T08:25:04.130Z,1014.34
2023-04-27T08:26:04.131Z,1014.36
2023-04-27T08:27:04.094Z,1014.33
2023-04-27T08:28:04.081Z,1014.32
2023-04-27T08:29:11.995Z,1014.33
2023-04-27T08:30:05.061Z,1014.26
2023-04-27T08:31:04.099Z,1014.28
2023-04-27T08:32:04.053Z,1014.28
2023-04-27T08:33:04.112Z,1014.28
2023-04-27T08:34:04.035Z,1014.29
2023-04-27T08:35:04.036Z,1014.28
2023-04-27T08:36:04.024Z,1014.27
2023-04-27T08:37:03.986Z,1014.32
2023-04-27T08:38:03.968Z,1014.30
2023-04-27T08:39:03.959Z,1014.31
2023-04-27T08:40:03.999Z,1014.33
2023-04-27T08:41:18.007Z,1014.33
2023-04-27T08:42:04.955Z,1014.29
2023-04-27T08:43:03.927Z,1014.34
2023-04-27T08:44:03.899Z,1014.36
2023-04-27T08:45:03.884Z,1014.29
2023-04-27T08:46:03.930Z,1014.30
2023-04-27T08:47:03.874Z,1014.28
2023-04-27T08:48:03.959Z,1014.29
2023-04-27T08:49:03.853Z,1014.28
2023-04-27T08:50:03.863Z,1014.27
2023-04-27T08:51:04.015Z,1014.22
2023-04-27T08:52:03.852Z,1014.24
2023-04-27T08:53:03.842Z,1014.26
2023-04-27T08:54:03.810Z,1014.25
2023-04-27T08:55:03.778Z,1014.21
2023-04-27T08:56:03.779Z,1014.22
2023-04-27T08:57:03.766Z,1014.26
2023-04-27T08:58:03.766Z,1014.28
2023-04-27T08:59:03.751Z,1014.26
2023-04-27T09:00:03.734Z,1014.25
2023-04-27T09:01:03.729Z,1014.25
2023-04-27T09:02:03.761Z,1014.28
2023-04-27T09:03:03.978Z,1014.29
2023-04-27T09:04:03.840Z,1014.31
2023-04-27T09:05:03.973Z,1014.27
2023-04-27T09:06:05.693Z,1014.22
2023-04-27T09:07:03.660Z,1014.25
2023-04-27T09:08:03.682Z,1014.16
2023-04-27T09:09:03.671Z,1014.18
2023-04-27T09:10:03.616Z,1014.21
2023-04-27T09:11:03.621Z,1014.17
2023-04-27T09:12:03.596Z,1014.18
2023-04-27T09:13:03.584Z,1014.21
2023-04-27T09:14:03.568Z,1014.17
2023-04-27T09:15:03.634Z,1014.12
2023-04-27T09:16:03.606Z,1014.06
2023-04-27T09:17:03.543Z,1014.06
2023-04-27T09:18:03.554Z,1014.11
2023-04-27T09:19:03.514Z,1014.08
2023-04-27T09:20:03.505Z,1014.13
2023-04-27T09:21:03.499Z,1014.10
2023-04-27T09:22:03.490Z,1014.11
2023-04-27T09:23:04.409Z,1014.14
2023-04-27T09:24:03.453Z,1014.13
2023-04-27T09:25:03.451Z,1014.11
2023-04-27T09:26:03.462Z,1014.13
2023-04-27T09:27:03.449Z,1014.12
2023-04-27T09:28:03.411Z,1014.11
2023-04-27T09:29:03.411Z,1014.13
2023-04-27T09:30:03.383Z,1014.05
2023-04-27T09:31:03.383Z,1014.11
2023-04-27T09:32:03.467Z,1014.10
2023-04-27T09:33:03.381Z,1014.10
2023-04-27T09:34:03.350Z,1014.07
2023-04-27T09:35:03.366Z,1014.11
2023-04-27T09:36:03.455Z,1014.13
2023-04-27T09:37:03.325Z,1014.15
2023-04-27T09:38:03.302Z,1014.11
2023-04-27T09:39:03.311Z,1014.08
2023-04-27T09:40:03.284Z,1014.09
2023-04-27T09:41:03.380Z,1014.09
2023-04-27T09:42:03.273Z,1014.07
2023-04-27T09:43:03.246Z,1014.06
2023-04-27T09:44:03.250Z,1014.05
2023-04-27T09:45:03.214Z,1014.03
2023-04-27T09:46:03.313Z,1013.95
2023-04-27T09:47:03.189Z,1013.93
2023-04-27T09:48:03.312Z,1013.92
2023-04-27T09:49:03.166Z,1013.97
2023-04-27T09:50:03.184Z,1013.97
2023-04-27T09:51:03.144Z,1013.96
2023-04-27T09:52:03.164Z,1013.96
2023-04-27T09:53:03.131Z,1013.94
2023-04-27T09:54:03.153Z,1013.93
2023-04-27T09:55:03.166Z,1013.84
2023-04-27T09:56:03.091Z,1013.88
2023-04-27T09:57:03.077Z,1013.88
2023-04-27T09:58:03.086Z,1013.87
2023-04-27T09:59:03.089Z,1013.85
2023-04-27T10:00:03.056Z,1013.86
2023-04-27T10:01:03.074Z,1013.84
2023-04-27T10:02:17.166Z,1013.86
2023-04-27T10:03:04.122Z,1013.87
2023-04-27T10:04:03.167Z,1013.84
2023-04-27T10:05:03.079Z,1013.86
2023-04-27T10:06:02.983Z,1013.86
2023-04-27T10:07:02.979Z,1013.83
2023-04-27T10:08:02.972Z,1013.84
2023-04-27T10:09:02.943Z,1013.84
2023-04-27T10:10:02.982Z,1013.79
2023-04-27T10:11:02.962Z,1013.85
2023-04-27T10:12:02.914Z,1013.88
2023-04-27T10:13:02.914Z,1013.80
2023-04-27T10:14:02.879Z,1013.77
2023-04-27T10:15:02.891Z,1013.73
2023-04-27T10:16:02.893Z,1013.70
2023-04-27T10:17:03.029Z,1013.72
2023-04-27T10:18:02.858Z,1013.71
2023-04-27T10:19:02.852Z,1013.72
2023-04-27T10:20:02.835Z,1013.74
2023-04-27T10:21:02.828Z,1013.73
2023-04-27T10:22:02.861Z,1013.70
2023-04-27T10:23:02.797Z,1013.67
2023-04-27T10:24:02.797Z,1013.64
2023-04-27T10:25:02.776Z,1013.65
2023-04-27T10:26:02.769Z,1013.63
2023-04-27T10:27:02.808Z,1013.64
2023-04-27T10:28:02.792Z,1013.69
2023-04-27T10:29:02.750Z,1013.67
2023-04-27T10:30:02.714Z,1013.73
2023-04-27T10:31:02.777Z,1013.69
2023-04-27T10:32:02.698Z,1013.71
2023-04-27T10:33:02.732Z,1013.63
2023-04-27T10:34:02.712Z,1013.62
2023-04-27T10:35:02.658Z,1013.63
2023-04-27T10:36:02.664Z,1013.61
2023-04-27T10:37:02.743Z,1013.59
2023-04-27T10:38:02.655Z,1013.56
2023-04-27T10:39:02.628Z,1013.58
2023-04-27T10:40:02.608Z,1013.54
2023-04-27T10:41:02.664Z,1013.47
2023-04-27T10:42:02.583Z,1013.49
2023-04-27T10:43:02.616Z,1013.42
2023-04-27T10:44:02.588Z,1013.43
2023-04-27T10:45:02.598Z,1013.40
2023-04-27T10:46:02.564Z,1013.40
2023-04-27T10:47:02.537Z,1013.39
2023-04-27T10:48:02.647Z,1013.39
2023-04-27T10:49:02.510Z,1013.36
2023-04-27T10:50:02.519Z,1013.38
2023-04-27T10:51:02.479Z,1013.37
2023-04-27T10:52:02.497Z,1013.37
2023-04-27T10:53:02.462Z,1013.40
2023-04-27T10:54:02.459Z,1013.39
2023-04-27T10:55:02.446Z,1013.38
2023-04-27T10:56:02.434Z,1013.40
2023-04-27T10:57:02.448Z,1013.40
2023-04-27T10:58:02.417Z,1013.40
2023-04-27T10:59:02.428Z,1013.38
2023-04-27T11:00:02.389Z,1013.35
2023-04-27T11:01:02.383Z,1013.36
2023-04-27T11:02:02.454Z,1013.36
2023-04-27T11:03:02.413Z,1013.40
2023-04-27T11:04:02.346Z,1013.34
2023-04-27T11:05:02.388Z,1013.33
2023-04-27T11:06:02.327Z,1013.33
2023-04-27T11:07:02.314Z,1013.33
2023-04-27T11:08:02.297Z,1013.32
2023-04-27T11:09:02.386Z,1013.29
2023-04-27T11:10:02.286Z,1013.29
2023-04-27T11:11:02.279Z,1013.31
2023-04-27T11:12:02.299Z,1013.29
2023-04-27T11:13:02.279Z,1013.31
2023-04-27T11:14:02.261Z,1013.28
2023-04-27T11:15:02.255Z,1013.31
2023-04-27T11:16:02.269Z,1013.23
2023-04-27T11:17:02.206Z,1013.28
2023-04-27T11:18:02.241Z,1013.28
2023-04-27T11:19:02.205Z,1013.25
2023-04-27T11:20:02.165Z,1013.24
2023-04-27T11:21:02.168Z,1013.23
2023-04-27T11:22:02.142Z,1013.20
2023-04-27T11:23:02.145Z,1013.18
2023-04-27T11:24:02.121Z,1013.20
2023-04-27T11:25:02.117Z,1013.17
2023-04-27T11:26:02.172Z,1013.16
2023-04-27T11:27:02.093Z,1013.18
2023-04-27T11:28:02.060Z,1013.12
2023-04-27T11:29:02.067Z,1013.12
2023-04-27T11:30:02.045Z,1013.14
2023-04-27T11:31:02.098Z,1013.12
2023-04-27T11:32:02.205Z,1013.17
2023-04-27T11:33:02.073Z,1013.15
2023-04-27T11:34:02.021Z,1013.13
2023-04-27T11:35:02.004Z,1013.14
2023-04-27T11:36:02.030Z,1013.16
2023-04-27T11:38:01.960Z,1013.14
2023-04-27T11:39:02.007Z,1013.13
2023-04-27T11:40:01.937Z,1013.13
2023-04-27T11:41:01.934Z,1013.12
2023-04-27T11:42:01.949Z,1013.12
2023-04-27T11:43:01.910Z,1013.10
2023-04-27T11:44:01.894Z,1013.10
2023-04-27T11:45:01.887Z,1013.09
2023-04-27T11:46:01.905Z,1013.12
2023-04-27T11:47:01.935Z,1013.08
2023-04-27T11:48:01.916Z,1013.08
2023-04-27T11:49:01.826Z,1013.08
2023-04-27T11:50:01.833Z,1013.02
2023-04-27T11:51:01.853Z,1012.99
2023-04-27T11:52:01.794Z,1012.97
2023-04-27T11:53:01.831Z,1012.95
2023-04-27T11:54:01.778Z,1012.93
2023-04-27T11:55:01.779Z,1012.91
2023-04-27T11:56:01.794Z,1012.90
2023-04-27T11:57:01.745Z,1012.87
2023-04-27T11:58:01.757Z,1012.89
2023-04-27T11:59:01.736Z,1012.89
2023-04-27T12:00:01.731Z,1012.82
2023-04-27T12:01:01.771Z,1012.84
2023-04-27T12:02:01.729Z,1012.85
2023-04-27T12:03:01.950Z,1012.81
2023-04-27T12:04:02.643Z,1012.85
2023-04-27T12:05:01.882Z,1012.83
2023-04-27T12:07:01.630Z,1012.82
2023-04-27T12:08:01.625Z,1012.86